sensor_id;sensor_type;location;lat;lon;timestamp;pressure;altitude;pressure_sealevel;temperature
77223;BMP280;66218;48.928;9.140;2023-04-05T00:00:50;99099.25;;;1.92
77223;BMP280;66218;48.928;9.140;2023-04-05T00:03:16;99090.38;;;1.92
77223;BMP280;66218;48.928;9.140;2023-04-05T00:05:42;99094.69;;;1.95
77223;BMP280;66218;48.928;9.140;2023-04-05T00:08:08;99089.41;;;1.97
77223;BMP280;66218;48.928;9.140;2023-04-05T00:10:37;99086.66;;;1.97
77223;BMP280;66218;48.928;9.140;2023-04-05T00:13:03;99089.41;;;1.97
77223;BMP280;66218;48.928;9.140;2023-04-05T00:15:29;99078.50;;;1.97
77223;BMP280;66218;48.928;9.140;2023-04-05T00:17:56;99078.81;;;2.01
77223;BMP280;66218;48.928;9.140;2023-04-05T00:20:22;99078.81;;;2.01
77223;BMP280;66218;48.928;9.140;2023-04-05T00:22:47;99070.91;;;1.95
77223;BMP280;66218;48.928;9.140;2023-04-05T00:25:14;99070.91;;;1.95
77223;BMP280;66218;48.928;9.140;2023-04-05T00:27:42;99065.88;;;1.92
77223;BMP280;66218;48.928;9.140;2023-04-05T00:30:08;99065.00;;;1.89
77223;BMP280;66218;48.928;9.140;2023-04-05T00:32:34;99057.41;;;1.88
77223;BMP280;66218;48.928;9.140;2023-04-05T00:35:00;99054.00;;;1.87
77223;BMP280;66218;48.928;9.140;2023-04-05T00:37:25;99056.72;;;1.87
77223;BMP280;66218;48.928;9.140;2023-04-05T00:39:50;99048.56;;;1.87
77223;BMP280;66218;48.928;9.140;2023-04-05T00:42:18;99051.28;;;1.87
77223;BMP280;66218;48.928;9.140;2023-04-05T00:44:43;99053.41;;;1.89
77223;BMP280;66218;48.928;9.140;2023-04-05T00:47:08;99049.16;;;1.86
77223;BMP280;66218;48.928;9.140;2023-04-05T00:49:35;99043.81;;;1.88
77223;BMP280;66218;48.928;9.140;2023-04-05T00:52:01;99039.09;;;1.88
77223;BMP280;66218;48.928;9.140;2023-04-05T00:54:27;99034.78;;;1.85
77223;BMP280;66218;48.928;9.140;2023-04-05T00:56:54;99033.38;;;1.84
77223;BMP280;66218;48.928;9.140;2023-04-05T00:59:20;99038.81;;;1.84
77223;BMP280;66218;48.928;9.140;2023-04-05T01:01:46;99038.09;;;1.84
77223;BMP280;66218;48.928;9.140;2023-04-05T01:04:21;99032.06;;;1.85
77223;BMP280;66218;48.928;9.140;2023-04-05T01:09:55;99028.50;;;1.83
77223;BMP280;66218;48.928;9.140;2023-04-05T01:12:21;99021.47;;;1.80
77223;BMP280;66218;48.928;9.140;2023-04-05T01:14:52;99022.03;;;1.78
77223;BMP280;66218;48.928;9.140;2023-04-05T01:17:19;99022.03;;;1.78
77223;BMP280;66218;48.928;9.140;2023-04-05T01:19:52;99012.56;;;1.69
77223;BMP280;66218;48.928;9.140;2023-04-05T01:27:57;99013.22;;;1.60
77223;BMP280;66218;48.928;9.140;2023-04-05T01:30:31;99019.78;;;1.57
77223;BMP280;66218;48.928;9.140;2023-04-05T01:35:50;99012.84;;;1.46
77223;BMP280;66218;48.928;9.140;2023-04-05T01:38:19;99011.09;;;1.41
77223;BMP280;66218;48.928;9.140;2023-04-05T01:40:47;99002.66;;;1.37
77223;BMP280;66218;48.928;9.140;2023-04-05T01:43:16;99006.06;;;1.38
77223;BMP280;66218;48.928;9.140;2023-04-05T01:45:42;99002.94;;;1.32
77223;BMP280;66218;48.928;9.140;2023-04-05T01:48:08;98998.31;;;1.24
77223;BMP280;66218;48.928;9.140;2023-04-05T01:50:33;99000.00;;;1.20
77223;BMP280;66218;48.928;9.140;2023-04-05T01:52:58;98996.97;;;1.16
77223;BMP280;66218;48.928;9.140;2023-04-05T01:55:23;98989.22;;;1.12
77223;BMP280;66218;48.928;9.140;2023-04-05T01:57:49;98994.66;;;1.12
77223;BMP280;66218;48.928;9.140;2023-04-05T02:00:14;98986.22;;;1.08
77223;BMP280;66218;48.928;9.140;2023-04-05T02:02:40;98994.34;;;1.08
77223;BMP280;66218;48.928;9.140;2023-04-05T02:05:05;98982.75;;;1.08
77223;BMP280;66218;48.928;9.140;2023-04-05T02:07:31;98992.19;;;1.07
77223;BMP280;66218;48.928;9.140;2023-04-05T02:09:56;98982.03;;;1.07
77223;BMP280;66218;48.928;9.140;2023-04-05T02:12:21;98979.31;;;1.07
77223;BMP280;66218;48.928;9.140;2023-04-05T02:14:47;98991.31;;;1.04
77223;BMP280;66218;48.928;9.140;2023-04-05T02:17:12;98983.00;;;1.02
77223;BMP280;66218;48.928;9.140;2023-04-05T02:19:37;98983.81;;;0.95
77223;BMP280;66218;48.928;9.140;2023-04-05T02:22:07;98982.38;;;0.94
77223;BMP280;66218;48.928;9.140;2023-04-05T02:24:32;98982.38;;;0.94
77223;BMP280;66218;48.928;9.140;2023-04-05T02:26:58;98976.16;;;0.84
77223;BMP280;66218;48.928;9.140;2023-04-05T02:29:23;98977.84;;;0.79
77223;BMP280;66218;48.928;9.140;2023-04-05T02:31:48;98982.25;;;0.74
77223;BMP280;66218;48.928;9.140;2023-04-05T02:34:14;98982.25;;;0.74
77223;BMP280;66218;48.928;9.140;2023-04-05T02:36:39;98975.06;;;0.69
77223;BMP280;66218;48.928;9.140;2023-04-05T02:39:06;98966.03;;;0.67
77223;BMP280;66218;48.928;9.140;2023-04-05T02:41:31;98971.47;;;0.67
77223;BMP280;66218;48.928;9.140;2023-04-05T02:43:56;98975.28;;;0.64
77223;BMP280;66218;48.928;9.140;2023-04-05T02:46:23;98974.56;;;0.63
77223;BMP280;66218;48.928;9.140;2023-04-05T02:48:48;98979.69;;;0.59
77223;BMP280;66218;48.928;9.140;2023-04-05T02:51:13;98975.94;;;0.55
77223;BMP280;66218;48.928;9.140;2023-04-05T02:53:38;98975.59;;;0.50
77223;BMP280;66218;48.928;9.140;2023-04-05T02:56:04;98968.56;;;0.47
77223;BMP280;66218;48.928;9.140;2023-04-05T02:58:30;98963.72;;;0.46
77223;BMP280;66218;48.928;9.140;2023-04-05T03:00:55;98967.00;;;0.44
77223;BMP280;66218;48.928;9.140;2023-04-05T03:03:22;98966.50;;;0.38
77223;BMP280;66218;48.928;9.140;2023-04-05T03:05:48;98969.63;;;0.35
77223;BMP280;66218;48.928;9.140;2023-04-05T03:08:14;98965.00;;;0.28
77223;BMP280;66218;48.928;9.140;2023-04-05T03:10:46;98962.13;;;0.25
77223;BMP280;66218;48.928;9.140;2023-04-05T03:13:13;98968.28;;;0.26
77223;BMP280;66218;48.928;9.140;2023-04-05T03:15:38;98967.53;;;0.25
77223;BMP280;66218;48.928;9.140;2023-04-05T03:18:03;98956.53;;;0.23
77223;BMP280;66218;48.928;9.140;2023-04-05T03:20:29;98959.25;;;0.23
77223;BMP280;66218;48.928;9.140;2023-04-05T03:22:54;98959.25;;;0.23
77223;BMP280;66218;48.928;9.140;2023-04-05T03:25:20;98959.25;;;0.23
77223;BMP280;66218;48.928;9.140;2023-04-05T03:27:45;98962.69;;;0.24
77223;BMP280;66218;48.928;9.140;2023-04-05T03:30:11;98962.69;;;0.24
77223;BMP280;66218;48.928;9.140;2023-04-05T03:32:36;98951.50;;;0.20
77223;BMP280;66218;48.928;9.140;2023-04-05T03:35:01;98968.34;;;0.18
77223;BMP280;66218;48.928;9.140;2023-04-05T03:37:27;98952.59;;;0.17
77223;BMP280;66218;48.928;9.140;2023-04-05T03:39:52;98955.00;;;0.13
77223;BMP280;66218;48.928;9.140;2023-04-05T03:42:17;98951.56;;;0.12
77223;BMP280;66218;48.928;9.140;2023-04-05T03:44:43;98960.41;;;0.13
77223;BMP280;66218;48.928;9.140;2023-04-05T03:47:09;98960.41;;;0.13
77223;BMP280;66218;48.928;9.140;2023-04-05T03:49:34;98958.84;;;0.10
77223;BMP280;66218;48.928;9.140;2023-04-05T03:52:00;98951.09;;;0.06
77223;BMP280;66218;48.928;9.140;2023-04-05T03:54:25;98959.38;;;0.08
77223;BMP280;66218;48.928;9.140;2023-04-05T03:56:50;98960.19;;;0.01
77223;BMP280;66218;48.928;9.140;2023-04-05T03:59:16;98960.94;;;-0.06
77223;BMP280;66218;48.928;9.140;2023-04-05T04:01:41;98957.34;;;-0.09
77223;BMP280;66218;48.928;9.140;2023-04-05T04:04:07;98961.19;;;-0.12
77223;BMP280;66218;48.928;9.140;2023-04-05T04:06:32;98952.72;;;-0.16
77223;BMP280;66218;48.928;9.140;2023-04-05T04:08:57;98955.97;;;-0.17
77223;BMP280;66218;48.928;9.140;2023-04-05T04:11:23;98957.09;;;-0.20
77223;BMP280;66218;48.928;9.140;2023-04-05T04:13:48;98952.78;;;-0.23
77223;BMP280;66218;48.928;9.140;2023-04-05T04:16:13;98956.19;;;-0.23
77223;BMP280;66218;48.928;9.140;2023-04-05T04:18:38;98954.59;;;-0.26
77223;BMP280;66218;48.928;9.140;2023-04-05T04:21:04;98955.81;;;-0.19
77223;BMP280;66218;48.928;9.140;2023-04-05T04:23:31;98953.34;;;-0.25
77223;BMP280;66218;48.928;9.140;2023-04-05T04:25:57;98953.34;;;-0.25
77223;BMP280;66218;48.928;9.140;2023-04-05T04:28:22;98947.94;;;-0.33
77223;BMP280;66218;48.928;9.140;2023-04-05T04:30:49;98950.13;;;-0.31
77223;BMP280;66218;48.928;9.140;2023-04-05T04:33:15;98950.66;;;-0.33
77223;BMP280;66218;48.928;9.140;2023-04-05T04:35:41;98943.25;;;-0.32
77223;BMP280;66218;48.928;9.140;2023-04-05T04:38:10;98944.69;;;-0.31
77223;BMP280;66218;48.928;9.140;2023-04-05T04:40:43;98939.97;;;-0.31
77223;BMP280;66218;48.928;9.140;2023-04-05T04:43:13;98939.44;;;-0.29
77223;BMP280;66218;48.928;9.140;2023-04-05T04:45:41;98935.47;;;-0.28
77223;BMP280;66218;48.928;9.140;2023-04-05T04:48:07;98930.38;;;-0.24
77223;BMP280;66218;48.928;9.140;2023-04-05T04:50:32;98937.41;;;-0.21
77223;BMP280;66218;48.928;9.140;2023-04-05T04:52:58;98954.81;;;-0.07
77223;BMP280;66218;48.928;9.140;2023-04-05T04:55:24;98955.72;;;-0.04
77223;BMP280;66218;48.928;9.140;2023-04-05T04:57:54;98962.72;;;-0.01
77223;BMP280;66218;48.928;9.140;2023-04-05T05:00:21;98961.63;;;0.02
77223;BMP280;66218;48.928;9.140;2023-04-05T05:02:46;98961.69;;;0.12
77223;BMP280;66218;48.928;9.140;2023-04-05T05:05:15;98972.50;;;0.19
77223;BMP280;66218;48.928;9.140;2023-04-05T05:07:40;98969.88;;;0.29
77223;BMP280;66218;48.928;9.140;2023-04-05T05:10:07;98979.34;;;0.38
77223;BMP280;66218;48.928;9.140;2023-04-05T05:12:33;98966.41;;;0.46
77223;BMP280;66218;48.928;9.140;2023-04-05T05:14:58;98975.22;;;0.54
77223;BMP280;66218;48.928;9.140;2023-04-05T05:17:23;98967.47;;;0.68
77223;BMP280;66218;48.928;9.140;2023-04-05T05:19:49;98971.84;;;0.81
77223;BMP280;66218;48.928;9.140;2023-04-05T05:22:15;98975.03;;;1.04
77223;BMP280;66218;48.928;9.140;2023-04-05T05:24:40;98979.44;;;1.26
77223;BMP280;66218;48.928;9.140;2023-04-05T05:27:06;98976.38;;;1.49
77223;BMP280;66218;48.928;9.140;2023-04-05T05:29:32;98973.47;;;1.74
77223;BMP280;66218;48.928;9.140;2023-04-05T05:31:57;98974.38;;;1.87
77223;BMP280;66218;48.928;9.140;2023-04-05T05:34:22;98972.69;;;2.01
77223;BMP280;66218;48.928;9.140;2023-04-05T05:36:48;98970.44;;;2.17
77223;BMP280;66218;48.928;9.140;2023-04-05T05:39:14;98974.03;;;2.29
77223;BMP280;66218;48.928;9.140;2023-04-05T05:41:40;98974.72;;;2.49
77223;BMP280;66218;48.928;9.140;2023-04-05T05:44:05;98979.59;;;2.70
77223;BMP280;66218;48.928;9.140;2023-04-05T05:46:31;98974.28;;;2.91
77223;BMP280;66218;48.928;9.140;2023-04-05T05:48:56;98973.56;;;2.91
77223;BMP280;66218;48.928;9.140;2023-04-05T05:51:21;98976.56;;;2.95
77223;BMP280;66218;48.928;9.140;2023-04-05T05:53:47;98967.94;;;2.98
77223;BMP280;66218;48.928;9.140;2023-04-05T05:56:12;98972.13;;;2.80
77223;BMP280;66218;48.928;9.140;2023-04-05T05:58:37;98991.78;;;2.88
77223;BMP280;66218;48.928;9.140;2023-04-05T06:01:05;98991.19;;;2.80
77223;BMP280;66218;48.928;9.140;2023-04-05T06:03:31;98994.94;;;2.75
77223;BMP280;66218;48.928;9.140;2023-04-05T06:05:57;98985.19;;;2.72
77223;BMP280;66218;48.928;9.140;2023-04-05T06:08:24;98991.38;;;2.72
77223;BMP280;66218;48.928;9.140;2023-04-05T06:10:51;98983.31;;;2.74
77223;BMP280;66218;48.928;9.140;2023-04-05T06:13:16;98992.94;;;2.66
77223;BMP280;66218;48.928;9.140;2023-04-05T06:15:42;98990.09;;;2.64
77223;BMP280;66218;48.928;9.140;2023-04-05T06:18:07;98994.25;;;2.65
77223;BMP280;66218;48.928;9.140;2023-04-05T06:20:33;98992.09;;;2.73
77223;BMP280;66218;48.928;9.140;2023-04-05T06:22:58;98997.53;;;2.73
77223;BMP280;66218;48.928;9.140;2023-04-05T06:25:23;99001.53;;;2.81
77223;BMP280;66218;48.928;9.140;2023-04-05T06:27:49;99002.97;;;2.73
77223;BMP280;66218;48.928;9.140;2023-04-05T06:30:14;98999.09;;;2.76
77223;BMP280;66218;48.928;9.140;2023-04-05T06:32:39;99001.97;;;2.68
77223;BMP280;66218;48.928;9.140;2023-04-05T06:35:05;99005.69;;;2.73
77223;BMP280;66218;48.928;9.140;2023-04-05T06:37:31;99002.53;;;2.67
77223;BMP280;66218;48.928;9.140;2023-04-05T06:39:58;99002.25;;;2.63
77223;BMP280;66218;48.928;9.140;2023-04-05T06:42:23;99004.81;;;2.70
77223;BMP280;66218;48.928;9.140;2023-04-05T06:44:49;99001.53;;;2.72
77223;BMP280;66218;48.928;9.140;2023-04-05T06:47:14;98999.38;;;2.70
77223;BMP280;66218;48.928;9.140;2023-04-05T06:49:40;98994.22;;;2.74
77223;BMP280;66218;48.928;9.140;2023-04-05T06:52:05;98999.38;;;2.80
77223;BMP280;66218;48.928;9.140;2023-04-05T06:54:36;98998.09;;;2.91
77223;BMP280;66218;48.928;9.140;2023-04-05T06:57:02;99004.25;;;2.91
77223;BMP280;66218;48.928;9.140;2023-04-05T06:59:28;99000.78;;;3.00
77223;BMP280;66218;48.928;9.140;2023-04-05T07:01:54;99015.41;;;3.05
77223;BMP280;66218;48.928;9.140;2023-04-05T07:04:20;99003.94;;;3.16
77223;BMP280;66218;48.928;9.140;2023-04-05T07:06:45;99010.19;;;3.28
77223;BMP280;66218;48.928;9.140;2023-04-05T07:09:11;99005.47;;;3.29
77223;BMP280;66218;48.928;9.140;2023-04-05T07:11:36;99013.47;;;3.37
77223;BMP280;66218;48.928;9.140;2023-04-05T07:14:03;99007.16;;;3.34
77223;BMP280;66218;48.928;9.140;2023-04-05T07:16:29;98999.22;;;3.48
77223;BMP280;66218;48.928;9.140;2023-04-05T07:18:55;99001.19;;;3.57
77223;BMP280;66218;48.928;9.140;2023-04-05T07:21:20;99007.78;;;3.64
77223;BMP280;66218;48.928;9.140;2023-04-05T07:23:46;99011.44;;;3.78
77223;BMP280;66218;48.928;9.140;2023-04-05T07:26:11;98997.34;;;3.81
77223;BMP280;66218;48.928;9.140;2023-04-05T07:28:36;99001.66;;;3.84
77223;BMP280;66218;48.928;9.140;2023-04-05T07:31:02;98996.19;;;3.84
77223;BMP280;66218;48.928;9.140;2023-04-05T07:33:28;98998.91;;;3.84
77223;BMP280;66218;48.928;9.140;2023-04-05T07:35:54;98996.16;;;3.94
77223;BMP280;66218;48.928;9.140;2023-04-05T07:38:20;99001.84;;;3.98
77223;BMP280;66218;48.928;9.140;2023-04-05T07:40:48;98996.66;;;4.02
77223;BMP280;66218;48.928;9.140;2023-04-05T07:43:13;99001.53;;;4.04
77223;BMP280;66218;48.928;9.140;2023-04-05T07:45:39;99001.78;;;4.08
77223;BMP280;66218;48.928;9.140;2023-04-05T07:48:04;99004.19;;;4.13
77223;BMP280;66218;48.928;9.140;2023-04-05T07:50:30;99005.06;;;4.16
77223;BMP280;66218;48.928;9.140;2023-04-05T07:52:55;99011.47;;;4.21
77223;BMP280;66218;48.928;9.140;2023-04-05T07:55:20;98995.78;;;4.21
77223;BMP280;66218;48.928;9.140;2023-04-05T07:57:46;99003.88;;;4.19
77223;BMP280;66218;48.928;9.140;2023-04-05T08:00:11;99007.31;;;4.20
77223;BMP280;66218;48.928;9.140;2023-04-05T08:02:37;99000.66;;;4.23
77223;BMP280;66218;48.928;9.140;2023-04-05T08:05:03;99004.66;;;4.31
77223;BMP280;66218;48.928;9.140;2023-04-05T08:07:29;99001.59;;;4.37
77223;BMP280;66218;48.928;9.140;2023-04-05T08:09:54;99002.81;;;4.46
77223;BMP280;66218;48.928;9.140;2023-04-05T08:12:22;99011.81;;;4.58
77223;BMP280;66218;48.928;9.140;2023-04-05T08:14:48;99011.00;;;4.67
77223;BMP280;66218;48.928;9.140;2023-04-05T08:17:13;99004.72;;;4.76
77223;BMP280;66218;48.928;9.140;2023-04-05T08:19:39;99004.41;;;4.94
77223;BMP280;66218;48.928;9.140;2023-04-05T08:22:04;98999.88;;;4.98
77223;BMP280;66218;48.928;9.140;2023-04-05T08:24:29;99006.34;;;5.14
77223;BMP280;66218;48.928;9.140;2023-04-05T08:26:55;99007.31;;;5.19
77223;BMP280;66218;48.928;9.140;2023-04-05T08:29:20;98999.00;;;5.29
77223;BMP280;66218;48.928;9.140;2023-04-05T08:31:45;99008.84;;;5.34
77223;BMP280;66218;48.928;9.140;2023-04-05T08:34:11;99005.06;;;5.39
77223;BMP280;66218;48.928;9.140;2023-04-05T08:36:36;99011.38;;;5.41
77223;BMP280;66218;48.928;9.140;2023-04-05T08:39:02;99003.41;;;5.57
77223;BMP280;66218;48.928;9.140;2023-04-05T08:41:35;99002.56;;;5.66
77223;BMP280;66218;48.928;9.140;2023-04-05T08:44:03;99011.56;;;5.81
77223;BMP280;66218;48.928;9.140;2023-04-05T08:46:33;99007.63;;;5.95
77223;BMP280;66218;48.928;9.140;2023-04-05T08:49:03;99008.44;;;6.10
77223;BMP280;66218;48.928;9.140;2023-04-05T08:51:29;98999.97;;;6.17
77223;BMP280;66218;48.928;9.140;2023-04-05T08:53:55;99004.91;;;6.33
77223;BMP280;66218;48.928;9.140;2023-04-05T08:56:25;99008.09;;;6.41
77223;BMP280;66218;48.928;9.140;2023-04-05T08:58:58;99002.66;;;6.54
77223;BMP280;66218;48.928;9.140;2023-04-05T09:01:28;99001.94;;;6.54
77223;BMP280;66218;48.928;9.140;2023-04-05T09:03:56;99004.31;;;6.60
77223;BMP280;66218;48.928;9.140;2023-04-05T09:06:21;99003.09;;;6.63
77223;BMP280;66218;48.928;9.140;2023-04-05T09:08:48;99007.72;;;6.72
77223;BMP280;66218;48.928;9.140;2023-04-05T09:11:14;99000.28;;;6.74
77223;BMP280;66218;48.928;9.140;2023-04-05T09:13:40;99000.19;;;6.72
77223;BMP280;66218;48.928;9.140;2023-04-05T09:16:06;99004.47;;;6.75
77223;BMP280;66218;48.928;9.140;2023-04-05T09:18:31;98999.69;;;6.76
77223;BMP280;66218;48.928;9.140;2023-04-05T09:21:06;98999.69;;;6.76
77223;BMP280;66218;48.928;9.140;2023-04-05T09:23:35;99000.63;;;6.80
77223;BMP280;66218;48.928;9.140;2023-04-05T09:26:16;99003.50;;;6.83
77223;BMP280;66218;48.928;9.140;2023-04-05T09:28:41;99005.00;;;6.86
77223;BMP280;66218;48.928;9.140;2023-04-05T09:31:07;99003.94;;;7.04
77223;BMP280;66218;48.928;9.140;2023-04-05T09:33:33;99003.81;;;7.02
77223;BMP280;66218;48.928;9.140;2023-04-05T09:35:58;98996.41;;;7.05
77223;BMP280;66218;48.928;9.140;2023-04-05T09:38:43;98999.88;;;7.19
77223;BMP280;66218;48.928;9.140;2023-04-05T09:41:09;99000.31;;;7.27
77223;BMP280;66218;48.928;9.140;2023-04-05T09:43:38;98998.06;;;7.38
77223;BMP280;66218;48.928;9.140;2023-04-05T09:46:04;98998.09;;;7.51
77223;BMP280;66218;48.928;9.140;2023-04-05T09:51:10;98998.28;;;7.42
77223;BMP280;66218;48.928;9.140;2023-04-05T09:53:35;98990.97;;;7.46
77223;BMP280;66218;48.928;9.140;2023-04-05T09:56:08;98988.53;;;7.52
77223;BMP280;66218;48.928;9.140;2023-04-05T09:58:35;98988.31;;;7.62
77223;BMP280;66218;48.928;9.140;2023-04-05T10:01:03;98983.75;;;7.53
77223;BMP280;66218;48.928;9.140;2023-04-05T10:03:28;98989.84;;;7.51
77223;BMP280;66218;48.928;9.140;2023-04-05T10:05:54;98984.66;;;7.57
77223;BMP280;66218;48.928;9.140;2023-04-05T10:08:20;98980.16;;;7.78
77223;BMP280;66218;48.928;9.140;2023-04-05T10:10:46;98978.00;;;7.90
77223;BMP280;66218;48.928;9.140;2023-04-05T10:13:13;98978.59;;;7.88
77223;BMP280;66218;48.928;9.140;2023-04-05T10:15:41;98976.03;;;7.93
77223;BMP280;66218;48.928;9.140;2023-04-05T10:18:17;98976.44;;;8.01
77223;BMP280;66218;48.928;9.140;2023-04-05T10:20:48;98976.00;;;8.06
77223;BMP280;66218;48.928;9.140;2023-04-05T10:23:23;98977.44;;;8.07
77223;BMP280;66218;48.928;9.140;2023-04-05T10:28:29;98972.53;;;8.06
77223;BMP280;66218;48.928;9.140;2023-04-05T10:33:39;98972.03;;;8.09
77223;BMP280;66218;48.928;9.140;2023-04-05T10:36:10;98966.81;;;8.15
77223;BMP280;66218;48.928;9.140;2023-04-05T10:39:09;98968.13;;;8.14
77223;BMP280;66218;48.928;9.140;2023-04-05T10:41:41;98958.41;;;8.27
77223;BMP280;66218;48.928;9.140;2023-04-05T10:44:08;98965.91;;;8.40
77223;BMP280;66218;48.928;9.140;2023-04-05T10:46:34;98965.66;;;8.34
77223;BMP280;66218;48.928;9.140;2023-04-05T10:49:11;98972.59;;;8.51
77223;BMP280;66218;48.928;9.140;2023-04-05T10:51:40;98958.13;;;8.66
77223;BMP280;66218;48.928;9.140;2023-04-05T10:54:08;98950.72;;;8.85
77223;BMP280;66218;48.928;9.140;2023-04-05T10:56:36;98953.53;;;9.02
77223;BMP280;66218;48.928;9.140;2023-04-05T10:59:01;98958.75;;;9.12
77223;BMP280;66218;48.928;9.140;2023-04-05T11:01:27;98957.06;;;9.21
77223;BMP280;66218;48.928;9.140;2023-04-05T11:03:53;98956.69;;;9.28
77223;BMP280;66218;48.928;9.140;2023-04-05T11:09:17;98947.31;;;9.36
77223;BMP280;66218;48.928;9.140;2023-04-05T11:11:48;98943.25;;;9.37
77223;BMP280;66218;48.928;9.140;2023-04-05T11:16:46;98943.19;;;9.52
77223;BMP280;66218;48.928;9.140;2023-04-05T11:19:15;98933.91;;;9.62
77223;BMP280;66218;48.928;9.140;2023-04-05T11:21:40;98943.31;;;9.72
77223;BMP280;66218;48.928;9.140;2023-04-05T11:24:07;98933.53;;;9.69
77223;BMP280;66218;48.928;9.140;2023-04-05T11:26:52;98937.63;;;9.68
77223;BMP280;66218;48.928;9.140;2023-04-05T11:29:18;98932.66;;;9.65
77223;BMP280;66218;48.928;9.140;2023-04-05T11:31:57;98933.97;;;9.46
77223;BMP280;66218;48.928;9.140;2023-04-05T11:34:24;98931.47;;;9.52
77223;BMP280;66218;48.928;9.140;2023-04-05T11:36:49;98927.66;;;9.43
77223;BMP280;66218;48.928;9.140;2023-04-05T11:41:52;98923.34;;;9.38
77223;BMP280;66218;48.928;9.140;2023-04-05T11:44:18;98917.34;;;9.44
77223;BMP280;66218;48.928;9.140;2023-04-05T11:46:46;98922.66;;;9.55
77223;BMP280;66218;48.928;9.140;2023-04-05T11:49:12;98921.09;;;9.68
77223;BMP280;66218;48.928;9.140;2023-04-05T11:51:39;98910.78;;;9.69
77223;BMP280;66218;48.928;9.140;2023-04-05T11:54:06;98908.34;;;9.59
77223;BMP280;66218;48.928;9.140;2023-04-05T11:56:32;98909.22;;;9.64
77223;BMP280;66218;48.928;9.140;2023-04-05T11:58:57;98916.75;;;9.63
77223;BMP280;66218;48.928;9.140;2023-04-05T12:01:23;98905.22;;;9.67
77223;BMP280;66218;48.928;9.140;2023-04-05T12:03:57;98905.34;;;9.89
77223;BMP280;66218;48.928;9.140;2023-04-05T12:06:23;98901.72;;;10.02
77223;BMP280;66218;48.928;9.140;2023-04-05T12:08:49;98898.75;;;10.13
77223;BMP280;66218;48.928;9.140;2023-04-05T12:11:24;98903.22;;;10.23
77223;BMP280;66218;48.928;9.140;2023-04-05T12:13:57;98897.03;;;10.24
77223;BMP280;66218;48.928;9.140;2023-04-05T12:16:23;98892.72;;;10.19
77223;BMP280;66218;48.928;9.140;2023-04-05T12:18:59;98891.38;;;10.20
77223;BMP280;66218;48.928;9.140;2023-04-05T12:21:42;98887.72;;;10.33
77223;BMP280;66218;48.928;9.140;2023-04-05T12:24:08;98881.44;;;10.51
77223;BMP280;66218;48.928;9.140;2023-04-05T12:26:34;98875.00;;;10.44
77223;BMP280;66218;48.928;9.140;2023-04-05T12:29:02;98878.72;;;10.33
77223;BMP280;66218;48.928;9.140;2023-04-05T12:31:44;98873.50;;;10.41
77223;BMP280;66218;48.928;9.140;2023-04-05T12:34:11;98872.09;;;10.60
77223;BMP280;66218;48.928;9.140;2023-04-05T12:36:37;98861.06;;;10.80
77223;BMP280;66218;48.928;9.140;2023-04-05T12:39:08;98861.66;;;10.98
77223;BMP280;66218;48.928;9.140;2023-04-05T12:41:34;98869.97;;;11.20
77223;BMP280;66218;48.928;9.140;2023-04-05T12:44:29;98862.72;;;11.09
77223;BMP280;66218;48.928;9.140;2023-04-05T12:47:01;98863.34;;;11.29
77223;BMP280;66218;48.928;9.140;2023-04-05T12:49:28;98864.06;;;11.51
77223;BMP280;66218;48.928;9.140;2023-04-05T12:51:53;98862.38;;;11.64
77223;BMP280;66218;48.928;9.140;2023-04-05T12:54:22;98853.91;;;11.58
77223;BMP280;66218;48.928;9.140;2023-04-05T12:56:54;98851.97;;;11.41
77223;BMP280;66218;48.928;9.140;2023-04-05T12:59:21;98849.75;;;11.35
77223;BMP280;66218;48.928;9.140;2023-04-05T13:01:46;98854.88;;;11.23
77223;BMP280;66218;48.928;9.140;2023-04-05T13:04:11;98843.88;;;11.25
77223;BMP280;66218;48.928;9.140;2023-04-05T13:06:37;98849.88;;;11.39
77223;BMP280;66218;48.928;9.140;2023-04-05T13:09:02;98845.94;;;11.24
77223;BMP280;66218;48.928;9.140;2023-04-05T13:11:28;98843.44;;;11.11
77223;BMP280;66218;48.928;9.140;2023-04-05T13:13:53;98849.91;;;11.41
77223;BMP280;66218;48.928;9.140;2023-04-05T13:16:19;98844.94;;;11.36
77223;BMP280;66218;48.928;9.140;2023-04-05T13:18:44;98832.59;;;11.17
77223;BMP280;66218;48.928;9.140;2023-04-05T13:21:10;98838.34;;;11.03
77223;BMP280;66218;48.928;9.140;2023-04-05T13:23:36;98836.09;;;10.97
77223;BMP280;66218;48.928;9.140;2023-04-05T13:26:03;98829.09;;;10.94
77223;BMP280;66218;48.928;9.140;2023-04-05T13:28:28;98832.25;;;11.07
77223;BMP280;66218;48.928;9.140;2023-04-05T13:30:54;98835.91;;;11.13
77223;BMP280;66218;48.928;9.140;2023-04-05T13:33:19;98828.41;;;11.16
77223;BMP280;66218;48.928;9.140;2023-04-05T13:35:45;98822.88;;;11.16
77223;BMP280;66218;48.928;9.140;2023-04-05T13:38:11;98826.72;;;11.07
77223;BMP280;66218;48.928;9.140;2023-04-05T13:40:36;98822.34;;;10.99
77223;BMP280;66218;48.928;9.140;2023-04-05T13:43:02;98819.22;;;10.87
77223;BMP280;66218;48.928;9.140;2023-04-05T13:45:27;98818.00;;;10.92
77223;BMP280;66218;48.928;9.140;2023-04-05T13:47:53;98820.06;;;11.14
77223;BMP280;66218;48.928;9.140;2023-04-05T13:50:18;98820.75;;;11.14
77223;BMP280;66218;48.928;9.140;2023-04-05T13:52:44;98814.31;;;11.08
77223;BMP280;66218;48.928;9.140;2023-04-05T13:55:09;98806.44;;;11.20
77223;BMP280;66218;48.928;9.140;2023-04-05T13:57:35;98802.34;;;11.45
77223;BMP280;66218;48.928;9.140;2023-04-05T14:00:00;98805.91;;;11.71
77223;BMP280;66218;48.928;9.140;2023-04-05T14:02:26;98804.91;;;11.84
77223;BMP280;66218;48.928;9.140;2023-04-05T14:04:54;98799.44;;;11.63
77223;BMP280;66218;48.928;9.140;2023-04-05T14:07:21;98806.63;;;11.72
77223;BMP280;66218;48.928;9.140;2023-04-05T14:09:46;98801.25;;;11.54
77223;BMP280;66218;48.928;9.140;2023-04-05T14:12:12;98797.38;;;11.63
77223;BMP280;66218;48.928;9.140;2023-04-05T14:14:37;98802.16;;;11.61
77223;BMP280;66218;48.928;9.140;2023-04-05T14:17:02;98792.09;;;11.47
77223;BMP280;66218;48.928;9.140;2023-04-05T14:19:28;98791.13;;;11.39
77223;BMP280;66218;48.928;9.140;2023-04-05T14:21:53;98790.53;;;11.42
77223;BMP280;66218;48.928;9.140;2023-04-05T14:24:18;98791.19;;;11.41
77223;BMP280;66218;48.928;9.140;2023-04-05T14:26:44;98783.59;;;11.41
77223;BMP280;66218;48.928;9.140;2023-04-05T14:29:13;98785.66;;;11.41
77223;BMP280;66218;48.928;9.140;2023-04-05T14:31:39;98785.66;;;11.41
77223;BMP280;66218;48.928;9.140;2023-04-05T14:34:04;98781.66;;;11.46
77223;BMP280;66218;48.928;9.140;2023-04-05T14:36:29;98786.63;;;11.49
77223;BMP280;66218;48.928;9.140;2023-04-05T14:38:55;98783.16;;;11.49
77223;BMP280;66218;48.928;9.140;2023-04-05T14:41:20;98777.25;;;11.37
77223;BMP280;66218;48.928;9.140;2023-04-05T14:43:45;98779.59;;;11.46